Acton, Montana
Current Conditions -  °F | °C
As of 5:53 AM on Wednesday 22 Oct 2014 (Local Time) from KBIL Reporting Station
Clear Clear  
Wind Chill: 40°   Ceiling: Unl
Heat Index: 48°   Visibility: 10mi
Dew Point: 28°   Wind: 24mph
Humidity: 46%   Direction: 280°W
Pressure: 29.99"   Gusts: 31mph
Location:  45.93°N, 108.69°W
Report Text: KBIL 221153Z 28021G27KT 10SM CLR 09/M02 A2999 RMK AO2 PK WND 28028/1114 SLP143 T00891022 10100 20083 51010
Loading
Personal Weather Stations






























Interactive Weather Map New forecast layout! Learn more

10-Day Weather Forecast

Advertisements
Track Severe Weather on mobile